This is the latest recevied weather packets stored in our database for station/object K5UBE. If no packets are shown the sender has not sent any weather packets the latest 10 day(s).
| Time | Temp. | Humidity | Pressure | Rain* | Wind** | Luminosity | Snow |
|---|---|---|---|---|---|---|---|
| 1777487649 | 15.56° C | 45% | 1020.9 hPa | 0 mm | - | - | - |
| 1777487345 | 15° C | 48% | 1020.8 hPa | 0 mm | - | - | - |
| 1777487043 | 15.56° C | 46% | 1020.9 hPa | 0 mm | - | - | - |
| 1777486738 | 15.56° C | 46% | 1021 hPa | 0 mm | - | - | - |
| 1777486437 | 15° C | 48% | 1021.3 hPa | 0 mm | - | - | - |
| 1777486134 | 15° C | 48% | 1021.1 hPa | 0 mm | - | - | - |
| 1777485830 | 15° C | 47% | 1021.1 hPa | 0 mm | - | - | - |
| 1777485526 | 14.44° C | 48% | 1021.4 hPa | 0 mm | - | - | - |
| 1777485223 | 14.44° C | 47% | 1021.4 hPa | 0 mm | - | - | - |
| 1777484919 | 14.44° C | 47% | 1021.5 hPa | 0 mm | - | - | - |
| 1777484616 | 14.44° C | 48% | 1021.4 hPa | 0 mm | - | - | - |
| 1777484312 | 13.89° C | 48% | 1021.5 hPa | 0 mm | - | - | - |
| 1777484008 | 14.44° C | 48% | 1021.6 hPa | 0 mm | - | - | - |
| 1777483705 | 14.44° C | 47% | 1021.5 hPa | 0 mm | - | - | - |
| 1777483401 | 13.89° C | 48% | 1021.5 hPa | 0 mm | - | - | - |
| 1777483096 | 14.44° C | 48% | 1021.6 hPa | 0 mm | - | - | - |
| 1777482794 | 14.44° C | 48% | 1021.5 hPa | 0 mm | - | - | - |
| 1777482489 | 13.89° C | 49% | 1021.4 hPa | 0 mm | - | - | - |
| 1777482187 | 14.44° C | 50% | 1021.6 hPa | 0 mm | - | - | - |
| 1777481884 | 14.44° C | 48% | 1021.4 hPa | 0 mm | - | - | - |
| 1777481582 | 13.89° C | 49% | 1021.6 hPa | 0 mm | - | - | - |
| 1777481278 | 13.89° C | 51% | 1021.7 hPa | 0 mm | - | - | - |
| 1777480975 | 13.33° C | 52% | 1021.7 hPa | 0 mm | - | - | - |
| 1777480672 | 13.33° C | 53% | 1021.7 hPa | 0 mm | - | - | - |
| 1777480368 | 12.78° C | 56% | 1021.8 hPa | 0 mm | - | - | - |
* Rain latest hour (hover to see other rain measurements)
** Current wind speed in m/s (hover to see current wind gust speed)